sensor_id;sensor_type;location;lat;lon;timestamp;P1;durP1;ratioP1;P2;durP2;ratioP2
13343;SDS011;6741;48.964;9.406;2023-08-24T00:01:02;9.63;;;8.70;;
13343;SDS011;6741;48.964;9.406;2023-08-24T00:03:29;9.57;;;8.68;;
13343;SDS011;6741;48.964;9.406;2023-08-24T00:05:57;9.25;;;8.35;;
13343;SDS011;6741;48.964;9.406;2023-08-24T00:08:24;10.45;;;8.27;;
13343;SDS011;6741;48.964;9.406;2023-08-24T00:10:52;9.88;;;9.10;;
13343;SDS011;6741;48.964;9.406;2023-08-24T00:13:19;9.35;;;8.52;;
13343;SDS011;6741;48.964;9.406;2023-08-24T00:15:46;10.60;;;9.60;;
13343;SDS011;6741;48.964;9.406;2023-08-24T00:18:14;10.20;;;8.40;;
13343;SDS011;6741;48.964;9.406;2023-08-24T00:20:43;9.13;;;8.23;;
13343;SDS011;6741;48.964;9.406;2023-08-24T00:23:10;8.80;;;8.10;;
13343;SDS011;6741;48.964;9.406;2023-08-24T00:25:37;8.52;;;7.85;;
13343;SDS011;6741;48.964;9.406;2023-08-24T00:28:06;8.07;;;7.35;;
13343;SDS011;6741;48.964;9.406;2023-08-24T00:30:33;12.40;;;7.95;;
13343;SDS011;6741;48.964;9.406;2023-08-24T00:33:00;8.75;;;8.05;;
13343;SDS011;6741;48.964;9.406;2023-08-24T00:35:28;8.35;;;7.75;;
13343;SDS011;6741;48.964;9.406;2023-08-24T00:37:56;8.80;;;7.75;;
13343;SDS011;6741;48.964;9.406;2023-08-24T00:40:23;8.63;;;7.65;;
13343;SDS011;6741;48.964;9.406;2023-08-24T00:42:50;8.25;;;7.55;;
13343;SDS011;6741;48.964;9.406;2023-08-24T00:45:17;13.35;;;8.45;;
13343;SDS011;6741;48.964;9.406;2023-08-24T00:47:46;8.90;;;8.07;;
13343;SDS011;6741;48.964;9.406;2023-08-24T00:50:13;8.32;;;7.60;;
13343;SDS011;6741;48.964;9.406;2023-08-24T00:52:43;7.88;;;7.18;;
13343;SDS011;6741;48.964;9.406;2023-08-24T00:55:13;8.30;;;7.50;;
13343;SDS011;6741;48.964;9.406;2023-08-24T00:57:40;8.38;;;7.70;;
13343;SDS011;6741;48.964;9.406;2023-08-24T01:00:08;9.05;;;8.15;;
13343;SDS011;6741;48.964;9.406;2023-08-24T01:02:36;8.63;;;7.93;;
13343;SDS011;6741;48.964;9.406;2023-08-24T01:05:03;8.48;;;7.80;;
13343;SDS011;6741;48.964;9.406;2023-08-24T01:07:31;9.23;;;8.38;;
13343;SDS011;6741;48.964;9.406;2023-08-24T01:10:01;8.75;;;7.90;;
13343;SDS011;6741;48.964;9.406;2023-08-24T01:12:31;8.82;;;8.10;;
13343;SDS011;6741;48.964;9.406;2023-08-24T01:15:07;9.25;;;8.15;;
13343;SDS011;6741;48.964;9.406;2023-08-24T01:17:39;10.85;;;8.18;;
13343;SDS011;6741;48.964;9.406;2023-08-24T01:20:09;9.65;;;8.68;;
13343;SDS011;6741;48.964;9.406;2023-08-24T01:22:37;9.68;;;8.05;;
13343;SDS011;6741;48.964;9.406;2023-08-24T01:25:15;8.80;;;7.95;;
13343;SDS011;6741;48.964;9.406;2023-08-24T01:27:44;8.35;;;7.53;;
13343;SDS011;6741;48.964;9.406;2023-08-24T01:30:13;8.90;;;8.20;;
13343;SDS011;6741;48.964;9.406;2023-08-24T01:32:41;8.65;;;7.85;;
13343;SDS011;6741;48.964;9.406;2023-08-24T01:35:09;8.52;;;7.82;;
13343;SDS011;6741;48.964;9.406;2023-08-24T01:37:36;8.77;;;7.65;;
13343;SDS011;6741;48.964;9.406;2023-08-24T01:40:05;8.65;;;7.93;;
13343;SDS011;6741;48.964;9.406;2023-08-24T01:42:35;7.82;;;7.13;;
13343;SDS011;6741;48.964;9.406;2023-08-24T01:45:09;8.68;;;7.97;;
13343;SDS011;6741;48.964;9.406;2023-08-24T01:47:39;8.27;;;7.50;;
13343;SDS011;6741;48.964;9.406;2023-08-24T01:50:08;8.45;;;7.68;;
13343;SDS011;6741;48.964;9.406;2023-08-24T01:52:36;9.30;;;7.50;;
13343;SDS011;6741;48.964;9.406;2023-08-24T01:55:03;8.20;;;7.57;;
13343;SDS011;6741;48.964;9.406;2023-08-24T01:57:31;8.65;;;7.90;;
13343;SDS011;6741;48.964;9.406;2023-08-24T01:59:58;8.80;;;8.00;;
13343;SDS011;6741;48.964;9.406;2023-08-24T02:02:26;8.80;;;8.10;;
13343;SDS011;6741;48.964;9.406;2023-08-24T02:04:53;8.55;;;7.68;;
13343;SDS011;6741;48.964;9.406;2023-08-24T02:07:20;8.98;;;8.10;;
13343;SDS011;6741;48.964;9.406;2023-08-24T02:09:46;8.98;;;8.15;;
13343;SDS011;6741;48.964;9.406;2023-08-24T02:12:13;13.35;;;9.00;;
13343;SDS011;6741;48.964;9.406;2023-08-24T02:14:40;8.82;;;8.13;;
13343;SDS011;6741;48.964;9.406;2023-08-24T02:17:07;9.68;;;8.77;;
13343;SDS011;6741;48.964;9.406;2023-08-24T02:19:35;8.48;;;7.78;;
13343;SDS011;6741;48.964;9.406;2023-08-24T02:22:02;9.02;;;8.13;;
13343;SDS011;6741;48.964;9.406;2023-08-24T02:24:29;9.27;;;8.38;;
13343;SDS011;6741;48.964;9.406;2023-08-24T02:26:56;9.43;;;8.63;;
13343;SDS011;6741;48.964;9.406;2023-08-24T02:29:22;11.63;;;9.15;;
13343;SDS011;6741;48.964;9.406;2023-08-24T02:31:49;10.32;;;8.85;;
13343;SDS011;6741;48.964;9.406;2023-08-24T02:34:16;10.27;;;9.38;;
13343;SDS011;6741;48.964;9.406;2023-08-24T02:36:45;10.30;;;8.60;;
13343;SDS011;6741;48.964;9.406;2023-08-24T02:39:12;12.00;;;9.35;;
13343;SDS011;6741;48.964;9.406;2023-08-24T02:41:39;12.65;;;8.98;;
13343;SDS011;6741;48.964;9.406;2023-08-24T02:44:06;8.93;;;8.02;;
13343;SDS011;6741;48.964;9.406;2023-08-24T02:46:34;9.52;;;8.73;;
13343;SDS011;6741;48.964;9.406;2023-08-24T02:49:01;8.60;;;7.90;;
13343;SDS011;6741;48.964;9.406;2023-08-24T02:51:28;9.10;;;8.20;;
13343;SDS011;6741;48.964;9.406;2023-08-24T02:53:57;8.50;;;7.80;;
13343;SDS011;6741;48.964;9.406;2023-08-24T02:56:24;10.10;;;8.15;;
13343;SDS011;6741;48.964;9.406;2023-08-24T02:58:51;7.95;;;7.35;;
13343;SDS011;6741;48.964;9.406;2023-08-24T03:01:19;8.38;;;7.68;;
13343;SDS011;6741;48.964;9.406;2023-08-24T03:03:46;8.82;;;7.32;;
13343;SDS011;6741;48.964;9.406;2023-08-24T03:06:13;7.38;;;6.68;;
13343;SDS011;6741;48.964;9.406;2023-08-24T03:08:39;7.32;;;6.72;;
13343;SDS011;6741;48.964;9.406;2023-08-24T03:11:08;9.30;;;7.22;;
13343;SDS011;6741;48.964;9.406;2023-08-24T03:13:35;7.82;;;7.13;;
13343;SDS011;6741;48.964;9.406;2023-08-24T03:16:03;7.85;;;7.13;;
13343;SDS011;6741;48.964;9.406;2023-08-24T03:18:30;7.50;;;6.80;;
13343;SDS011;6741;48.964;9.406;2023-08-24T03:20:58;8.02;;;7.32;;
13343;SDS011;6741;48.964;9.406;2023-08-24T03:23:26;8.02;;;6.78;;
13343;SDS011;6741;48.964;9.406;2023-08-24T03:25:53;8.25;;;7.53;;
13343;SDS011;6741;48.964;9.406;2023-08-24T03:28:22;7.80;;;7.00;;
13343;SDS011;6741;48.964;9.406;2023-08-24T03:30:50;8.00;;;7.30;;
13343;SDS011;6741;48.964;9.406;2023-08-24T03:33:20;8.07;;;7.38;;
13343;SDS011;6741;48.964;9.406;2023-08-24T03:35:47;8.02;;;7.18;;
13343;SDS011;6741;48.964;9.406;2023-08-24T03:38:14;8.55;;;7.75;;
13343;SDS011;6741;48.964;9.406;2023-08-24T03:40:41;9.98;;;8.85;;
13343;SDS011;6741;48.964;9.406;2023-08-24T03:43:08;9.18;;;8.27;;
13343;SDS011;6741;48.964;9.406;2023-08-24T03:45:36;9.40;;;8.70;;
13343;SDS011;6741;48.964;9.406;2023-08-24T03:48:03;9.32;;;8.38;;
13343;SDS011;6741;48.964;9.406;2023-08-24T03:50:30;10.00;;;9.00;;
13343;SDS011;6741;48.964;9.406;2023-08-24T03:52:57;11.73;;;9.38;;
13343;SDS011;6741;48.964;9.406;2023-08-24T03:55:24;9.98;;;8.98;;
13343;SDS011;6741;48.964;9.406;2023-08-24T03:57:51;10.35;;;9.25;;
13343;SDS011;6741;48.964;9.406;2023-08-24T04:00:19;9.80;;;8.80;;
13343;SDS011;6741;48.964;9.406;2023-08-24T04:02:47;10.80;;;9.82;;
13343;SDS011;6741;48.964;9.406;2023-08-24T04:05:14;10.82;;;9.93;;
13343;SDS011;6741;48.964;9.406;2023-08-24T04:07:41;10.35;;;9.43;;
13343;SDS011;6741;48.964;9.406;2023-08-24T04:10:08;10.75;;;9.65;;
13343;SDS011;6741;48.964;9.406;2023-08-24T04:12:35;10.40;;;9.50;;
13343;SDS011;6741;48.964;9.406;2023-08-24T04:15:02;9.63;;;8.77;;
13343;SDS011;6741;48.964;9.406;2023-08-24T04:17:30;9.80;;;8.93;;
13343;SDS011;6741;48.964;9.406;2023-08-24T04:19:58;10.40;;;9.40;;
13343;SDS011;6741;48.964;9.406;2023-08-24T04:22:25;8.48;;;7.70;;
13343;SDS011;6741;48.964;9.406;2023-08-24T04:24:52;9.55;;;8.32;;
13343;SDS011;6741;48.964;9.406;2023-08-24T04:27:19;9.20;;;8.30;;
13343;SDS011;6741;48.964;9.406;2023-08-24T04:29:47;9.38;;;8.63;;
13343;SDS011;6741;48.964;9.406;2023-08-24T04:32:13;8.77;;;7.97;;
13343;SDS011;6741;48.964;9.406;2023-08-24T04:34:40;8.98;;;8.13;;
13343;SDS011;6741;48.964;9.406;2023-08-24T04:37:09;9.02;;;8.32;;
13343;SDS011;6741;48.964;9.406;2023-08-24T04:39:35;9.32;;;8.50;;
13343;SDS011;6741;48.964;9.406;2023-08-24T04:42:02;8.70;;;8.00;;
13343;SDS011;6741;48.964;9.406;2023-08-24T04:44:30;12.23;;;8.10;;
13343;SDS011;6741;48.964;9.406;2023-08-24T04:46:57;8.45;;;7.75;;
13343;SDS011;6741;48.964;9.406;2023-08-24T04:49:24;8.73;;;7.90;;
13343;SDS011;6741;48.964;9.406;2023-08-24T04:51:51;8.77;;;7.97;;
13343;SDS011;6741;48.964;9.406;2023-08-24T04:54:19;8.45;;;7.72;;
13343;SDS011;6741;48.964;9.406;2023-08-24T04:56:46;8.63;;;7.78;;
13343;SDS011;6741;48.964;9.406;2023-08-24T04:59:13;8.60;;;7.70;;
13343;SDS011;6741;48.964;9.406;2023-08-24T05:01:40;8.55;;;7.82;;
13343;SDS011;6741;48.964;9.406;2023-08-24T05:04:07;8.43;;;7.63;;
13343;SDS011;6741;48.964;9.406;2023-08-24T05:06:34;8.55;;;7.65;;
13343;SDS011;6741;48.964;9.406;2023-08-24T05:09:00;7.57;;;6.97;;
13343;SDS011;6741;48.964;9.406;2023-08-24T05:11:29;7.93;;;7.28;;
13343;SDS011;6741;48.964;9.406;2023-08-24T05:13:56;7.97;;;7.20;;
13343;SDS011;6741;48.964;9.406;2023-08-24T05:16:23;9.18;;;6.55;;
13343;SDS011;6741;48.964;9.406;2023-08-24T05:18:49;7.40;;;6.70;;
13343;SDS011;6741;48.964;9.406;2023-08-24T05:21:16;7.68;;;7.07;;
13343;SDS011;6741;48.964;9.406;2023-08-24T05:23:43;9.45;;;6.97;;
13343;SDS011;6741;48.964;9.406;2023-08-24T05:26:10;10.02;;;6.80;;
13343;SDS011;6741;48.964;9.406;2023-08-24T05:28:38;7.60;;;6.88;;
13343;SDS011;6741;48.964;9.406;2023-08-24T05:31:05;7.30;;;6.60;;
13343;SDS011;6741;48.964;9.406;2023-08-24T05:33:32;7.32;;;6.72;;
13343;SDS011;6741;48.964;9.406;2023-08-24T05:35:59;7.90;;;6.70;;
13343;SDS011;6741;48.964;9.406;2023-08-24T05:38:26;7.40;;;6.68;;
13343;SDS011;6741;48.964;9.406;2023-08-24T05:40:52;7.30;;;6.60;;
13343;SDS011;6741;48.964;9.406;2023-08-24T05:43:19;7.20;;;6.60;;
13343;SDS011;6741;48.964;9.406;2023-08-24T05:45:48;8.02;;;7.22;;
13343;SDS011;6741;48.964;9.406;2023-08-24T05:48:15;7.35;;;6.75;;
13343;SDS011;6741;48.964;9.406;2023-08-24T05:50:42;8.60;;;6.18;;
13343;SDS011;6741;48.964;9.406;2023-08-24T05:53:10;7.50;;;6.80;;
13343;SDS011;6741;48.964;9.406;2023-08-24T05:55:37;9.07;;;6.38;;
13343;SDS011;6741;48.964;9.406;2023-08-24T05:58:04;7.15;;;6.55;;
13343;SDS011;6741;48.964;9.406;2023-08-24T06:00:31;6.70;;;6.10;;
13343;SDS011;6741;48.964;9.406;2023-08-24T06:02:59;6.72;;;6.13;;
13343;SDS011;6741;48.964;9.406;2023-08-24T06:05:26;6.22;;;5.75;;
13343;SDS011;6741;48.964;9.406;2023-08-24T06:07:53;8.45;;;6.32;;
13343;SDS011;6741;48.964;9.406;2023-08-24T06:10:20;6.80;;;6.10;;
13343;SDS011;6741;48.964;9.406;2023-08-24T06:12:47;6.53;;;6.03;;
13343;SDS011;6741;48.964;9.406;2023-08-24T06:15:14;5.72;;;5.22;;
13343;SDS011;6741;48.964;9.406;2023-08-24T06:17:41;5.63;;;5.18;;
13343;SDS011;6741;48.964;9.406;2023-08-24T06:20:10;6.03;;;5.45;;
13343;SDS011;6741;48.964;9.406;2023-08-24T06:22:38;5.65;;;4.90;;
13343;SDS011;6741;48.964;9.406;2023-08-24T06:25:05;5.72;;;5.13;;
13343;SDS011;6741;48.964;9.406;2023-08-24T06:27:33;6.50;;;5.32;;
13343;SDS011;6741;48.964;9.406;2023-08-24T06:30:01;5.63;;;5.13;;
13343;SDS011;6741;48.964;9.406;2023-08-24T06:32:28;5.18;;;4.68;;
13343;SDS011;6741;48.964;9.406;2023-08-24T06:34:55;5.78;;;4.65;;
13343;SDS011;6741;48.964;9.406;2023-08-24T06:37:23;6.45;;;4.88;;
13343;SDS011;6741;48.964;9.406;2023-08-24T06:39:50;6.30;;;4.97;;
13343;SDS011;6741;48.964;9.406;2023-08-24T06:42:17;5.90;;;4.57;;
13343;SDS011;6741;48.964;9.406;2023-08-24T06:44:44;5.07;;;4.55;;
13343;SDS011;6741;48.964;9.406;2023-08-24T06:47:13;6.88;;;5.60;;
13343;SDS011;6741;48.964;9.406;2023-08-24T06:49:40;5.53;;;4.88;;
13343;SDS011;6741;48.964;9.406;2023-08-24T06:52:07;6.32;;;4.50;;
13343;SDS011;6741;48.964;9.406;2023-08-24T06:54:35;5.15;;;4.55;;
13343;SDS011;6741;48.964;9.406;2023-08-24T06:57:02;6.50;;;4.53;;
13343;SDS011;6741;48.964;9.406;2023-08-24T06:59:30;4.93;;;4.53;;
13343;SDS011;6741;48.964;9.406;2023-08-24T07:01:56;7.43;;;4.47;;
13343;SDS011;6741;48.964;9.406;2023-08-24T07:04:24;5.00;;;4.60;;
13343;SDS011;6741;48.964;9.406;2023-08-24T07:06:51;6.85;;;4.57;;
13343;SDS011;6741;48.964;9.406;2023-08-24T07:09:18;5.28;;;4.30;;
13343;SDS011;6741;48.964;9.406;2023-08-24T07:11:47;6.45;;;5.05;;
13343;SDS011;6741;48.964;9.406;2023-08-24T07:14:14;6.53;;;4.35;;
13343;SDS011;6741;48.964;9.406;2023-08-24T07:16:41;6.65;;;4.60;;
13343;SDS011;6741;48.964;9.406;2023-08-24T07:19:08;4.93;;;4.53;;
13343;SDS011;6741;48.964;9.406;2023-08-24T07:21:35;4.97;;;4.43;;
13343;SDS011;6741;48.964;9.406;2023-08-24T07:24:02;8.02;;;4.57;;
13343;SDS011;6741;48.964;9.406;2023-08-24T07:26:29;5.95;;;4.65;;
13343;SDS011;6741;48.964;9.406;2023-08-24T07:28:57;4.40;;;4.00;;
13343;SDS011;6741;48.964;9.406;2023-08-24T07:31:25;4.95;;;4.50;;
13343;SDS011;6741;48.964;9.406;2023-08-24T07:33:52;8.43;;;4.85;;
13343;SDS011;6741;48.964;9.406;2023-08-24T07:36:18;4.72;;;4.30;;
13343;SDS011;6741;48.964;9.406;2023-08-24T07:38:45;4.85;;;4.45;;
13343;SDS011;6741;48.964;9.406;2023-08-24T07:41:13;4.70;;;4.32;;
13343;SDS011;6741;48.964;9.406;2023-08-24T07:43:40;4.78;;;4.38;;
13343;SDS011;6741;48.964;9.406;2023-08-24T07:46:08;7.85;;;4.65;;
13343;SDS011;6741;48.964;9.406;2023-08-24T07:48:35;4.88;;;4.47;;
13343;SDS011;6741;48.964;9.406;2023-08-24T07:51:02;6.38;;;4.60;;
13343;SDS011;6741;48.964;9.406;2023-08-24T07:53:29;4.70;;;4.30;;
13343;SDS011;6741;48.964;9.406;2023-08-24T07:55:58;6.93;;;5.25;;
13343;SDS011;6741;48.964;9.406;2023-08-24T07:58:25;4.85;;;4.43;;
13343;SDS011;6741;48.964;9.406;2023-08-24T08:00:52;5.10;;;4.70;;
13343;SDS011;6741;48.964;9.406;2023-08-24T08:03:20;5.38;;;4.50;;
13343;SDS011;6741;48.964;9.406;2023-08-24T08:05:47;4.72;;;4.32;;
13343;SDS011;6741;48.964;9.406;2023-08-24T08:08:14;4.47;;;4.10;;
13343;SDS011;6741;48.964;9.406;2023-08-24T08:10:41;6.22;;;4.68;;
13343;SDS011;6741;48.964;9.406;2023-08-24T08:13:09;5.10;;;4.60;;
13343;SDS011;6741;48.964;9.406;2023-08-24T08:15:36;4.78;;;4.35;;
13343;SDS011;6741;48.964;9.406;2023-08-24T08:18:04;6.68;;;4.63;;
13343;SDS011;6741;48.964;9.406;2023-08-24T08:20:32;5.85;;;4.57;;
13343;SDS011;6741;48.964;9.406;2023-08-24T08:22:59;4.82;;;4.43;;
13343;SDS011;6741;48.964;9.406;2023-08-24T08:25:26;4.85;;;4.40;;
13343;SDS011;6741;48.964;9.406;2023-08-24T08:27:53;5.00;;;4.60;;
13343;SDS011;6741;48.964;9.406;2023-08-24T08:30:20;6.45;;;4.32;;
13343;SDS011;6741;48.964;9.406;2023-08-24T08:32:47;6.13;;;4.40;;
13343;SDS011;6741;48.964;9.406;2023-08-24T08:35:16;4.65;;;4.15;;
13343;SDS011;6741;48.964;9.406;2023-08-24T08:37:44;4.78;;;4.38;;
13343;SDS011;6741;48.964;9.406;2023-08-24T08:40:11;6.50;;;4.40;;
13343;SDS011;6741;48.964;9.406;2023-08-24T08:42:38;5.97;;;4.70;;
13343;SDS011;6741;48.964;9.406;2023-08-24T08:45:07;7.03;;;4.55;;
13343;SDS011;6741;48.964;9.406;2023-08-24T08:47:35;8.68;;;5.03;;
13343;SDS011;6741;48.964;9.406;2023-08-24T08:50:03;7.45;;;4.80;;
13343;SDS011;6741;48.964;9.406;2023-08-24T08:52:30;5.53;;;4.63;;
13343;SDS011;6741;48.964;9.406;2023-08-24T08:55:00;5.40;;;4.70;;
13343;SDS011;6741;48.964;9.406;2023-08-24T08:57:31;5.70;;;4.53;;
13343;SDS011;6741;48.964;9.406;2023-08-24T09:00:00;4.72;;;4.32;;
13343;SDS011;6741;48.964;9.406;2023-08-24T09:02:27;6.47;;;4.85;;
13343;SDS011;6741;48.964;9.406;2023-08-24T09:04:56;4.72;;;4.32;;
13343;SDS011;6741;48.964;9.406;2023-08-24T09:07:23;9.40;;;4.40;;
13343;SDS011;6741;48.964;9.406;2023-08-24T09:09:51;7.18;;;4.85;;
13343;SDS011;6741;48.964;9.406;2023-08-24T09:12:19;5.70;;;5.20;;
13343;SDS011;6741;48.964;9.406;2023-08-24T09:14:46;5.85;;;4.43;;
13343;SDS011;6741;48.964;9.406;2023-08-24T09:17:19;4.78;;;4.35;;
13343;SDS011;6741;48.964;9.406;2023-08-24T09:19:47;7.40;;;4.53;;
13343;SDS011;6741;48.964;9.406;2023-08-24T09:22:16;5.32;;;4.20;;
13343;SDS011;6741;48.964;9.406;2023-08-24T09:24:43;4.78;;;4.38;;
13343;SDS011;6741;48.964;9.406;2023-08-24T09:27:14;5.07;;;4.20;;
13343;SDS011;6741;48.964;9.406;2023-08-24T09:29:43;4.55;;;4.15;;
13343;SDS011;6741;48.964;9.406;2023-08-24T09:32:13;3.90;;;3.60;;
13343;SDS011;6741;48.964;9.406;2023-08-24T09:34:40;5.13;;;4.50;;
13343;SDS011;6741;48.964;9.406;2023-08-24T09:37:12;5.90;;;3.95;;
13343;SDS011;6741;48.964;9.406;2023-08-24T09:39:40;5.20;;;4.40;;
13343;SDS011;6741;48.964;9.406;2023-08-24T09:42:07;4.40;;;4.00;;
13343;SDS011;6741;48.964;9.406;2023-08-24T09:44:34;4.70;;;4.30;;
13343;SDS011;6741;48.964;9.406;2023-08-24T09:47:02;8.00;;;4.35;;
13343;SDS011;6741;48.964;9.406;2023-08-24T09:49:35;5.55;;;4.57;;
13343;SDS011;6741;48.964;9.406;2023-08-24T09:52:02;5.43;;;4.28;;
13343;SDS011;6741;48.964;9.406;2023-08-24T09:54:32;4.50;;;4.20;;
13343;SDS011;6741;48.964;9.406;2023-08-24T09:57:03;5.13;;;4.72;;
13343;SDS011;6741;48.964;9.406;2023-08-24T09:59:33;4.28;;;3.97;;
13343;SDS011;6741;48.964;9.406;2023-08-24T10:02:02;5.43;;;4.50;;
13343;SDS011;6741;48.964;9.406;2023-08-24T10:04:34;4.70;;;4.40;;
13343;SDS011;6741;48.964;9.406;2023-08-24T10:07:03;4.63;;;4.28;;
13343;SDS011;6741;48.964;9.406;2023-08-24T10:09:35;6.43;;;4.40;;
13343;SDS011;6741;48.964;9.406;2023-08-24T10:12:08;6.65;;;4.47;;
13343;SDS011;6741;48.964;9.406;2023-08-24T10:14:38;6.25;;;5.05;;
13343;SDS011;6741;48.964;9.406;2023-08-24T10:17:15;5.03;;;4.07;;
13343;SDS011;6741;48.964;9.406;2023-08-24T10:19:42;6.30;;;4.30;;
13343;SDS011;6741;48.964;9.406;2023-08-24T10:22:10;4.85;;;4.32;;
13343;SDS011;6741;48.964;9.406;2023-08-24T10:24:38;4.53;;;4.13;;
13343;SDS011;6741;48.964;9.406;2023-08-24T10:27:05;7.22;;;4.57;;
13343;SDS011;6741;48.964;9.406;2023-08-24T10:29:35;4.60;;;4.20;;
13343;SDS011;6741;48.964;9.406;2023-08-24T10:32:02;5.88;;;4.53;;
13343;SDS011;6741;48.964;9.406;2023-08-24T10:34:31;5.10;;;4.70;;
13343;SDS011;6741;48.964;9.406;2023-08-24T10:37:06;4.90;;;4.28;;
13343;SDS011;6741;48.964;9.406;2023-08-24T10:39:34;4.65;;;4.25;;
13343;SDS011;6741;48.964;9.406;2023-08-24T10:42:03;4.50;;;4.10;;
13343;SDS011;6741;48.964;9.406;2023-08-24T10:44:34;4.93;;;4.32;;
13343;SDS011;6741;48.964;9.406;2023-08-24T10:47:05;4.50;;;4.10;;
13343;SDS011;6741;48.964;9.406;2023-08-24T10:49:34;4.47;;;4.07;;
13343;SDS011;6741;48.964;9.406;2023-08-24T10:52:16;4.82;;;3.70;;
13343;SDS011;6741;48.964;9.406;2023-08-24T10:54:45;4.78;;;4.40;;
13343;SDS011;6741;48.964;9.406;2023-08-24T10:57:20;4.75;;;4.00;;
13343;SDS011;6741;48.964;9.406;2023-08-24T10:59:58;4.80;;;4.40;;
13343;SDS011;6741;48.964;9.406;2023-08-24T11:02:26;4.82;;;4.30;;
13343;SDS011;6741;48.964;9.406;2023-08-24T11:05:07;4.30;;;3.95;;
13343;SDS011;6741;48.964;9.406;2023-08-24T11:07:47;6.22;;;4.75;;
13343;SDS011;6741;48.964;9.406;2023-08-24T11:10:15;4.95;;;4.30;;
13343;SDS011;6741;48.964;9.406;2023-08-24T11:13:03;5.28;;;3.97;;
13343;SDS011;6741;48.964;9.406;2023-08-24T11:15:32;5.82;;;4.57;;
13343;SDS011;6741;48.964;9.406;2023-08-24T11:20:56;4.38;;;3.97;;
13343;SDS011;6741;48.964;9.406;2023-08-24T11:23:28;4.75;;;4.35;;
13343;SDS011;6741;48.964;9.406;2023-08-24T11:25:56;5.57;;;3.90;;
13343;SDS011;6741;48.964;9.406;2023-08-24T11:28:25;4.85;;;3.90;;
13343;SDS011;6741;48.964;9.406;2023-08-24T11:30:53;5.30;;;3.80;;
13343;SDS011;6741;48.964;9.406;2023-08-24T11:33:27;4.80;;;4.30;;
13343;SDS011;6741;48.964;9.406;2023-08-24T11:35:56;4.40;;;4.10;;
13343;SDS011;6741;48.964;9.406;2023-08-24T11:38:23;4.28;;;3.97;;
13343;SDS011;6741;48.964;9.406;2023-08-24T11:40:50;3.95;;;3.60;;
13343;SDS011;6741;48.964;9.406;2023-08-24T11:43:26;6.03;;;3.92;;
13343;SDS011;6741;48.964;9.406;2023-08-24T11:45:53;6.40;;;4.20;;
13343;SDS011;6741;48.964;9.406;2023-08-24T11:48:23;6.10;;;4.00;;
13343;SDS011;6741;48.964;9.406;2023-08-24T11:50:51;4.13;;;3.83;;
13343;SDS011;6741;48.964;9.406;2023-08-24T11:53:20;4.45;;;4.15;;
13343;SDS011;6741;48.964;9.406;2023-08-24T11:55:49;4.60;;;3.92;;
13343;SDS011;6741;48.964;9.406;2023-08-24T11:58:18;4.75;;;4.35;;
13343;SDS011;6741;48.964;9.406;2023-08-24T12:00:45;5.18;;;4.13;;
13343;SDS011;6741;48.964;9.406;2023-08-24T12:03:13;4.15;;;3.85;;
13343;SDS011;6741;48.964;9.406;2023-08-24T12:05:40;4.60;;;4.20;;
13343;SDS011;6741;48.964;9.406;2023-08-24T12:08:07;5.47;;;4.28;;
13343;SDS011;6741;48.964;9.406;2023-08-24T12:10:42;4.43;;;4.03;;
13343;SDS011;6741;48.964;9.406;2023-08-24T12:13:09;4.70;;;4.30;;
13343;SDS011;6741;48.964;9.406;2023-08-24T12:15:38;4.97;;;4.47;;
13343;SDS011;6741;48.964;9.406;2023-08-24T12:18:07;5.13;;;3.70;;
13343;SDS011;6741;48.964;9.406;2023-08-24T12:20:35;4.40;;;4.10;;
13343;SDS011;6741;48.964;9.406;2023-08-24T12:23:02;5.00;;;3.80;;
13343;SDS011;6741;48.964;9.406;2023-08-24T12:25:29;5.57;;;4.35;;
13343;SDS011;6741;48.964;9.406;2023-08-24T12:28:11;4.55;;;4.15;;
13343;SDS011;6741;48.964;9.406;2023-08-24T12:30:48;4.35;;;4.03;;
13343;SDS011;6741;48.964;9.406;2023-08-24T12:33:23;4.38;;;3.92;;
13343;SDS011;6741;48.964;9.406;2023-08-24T12:35:51;6.35;;;3.90;;
13343;SDS011;6741;48.964;9.406;2023-08-24T12:38:18;4.88;;;4.32;;
13343;SDS011;6741;48.964;9.406;2023-08-24T12:40:46;4.10;;;3.80;;
13343;SDS011;6741;48.964;9.406;2023-08-24T12:43:14;4.53;;;4.10;;
13343;SDS011;6741;48.964;9.406;2023-08-24T12:45:41;5.53;;;4.20;;
13343;SDS011;6741;48.964;9.406;2023-08-24T12:48:08;4.80;;;4.35;;
13343;SDS011;6741;48.964;9.406;2023-08-24T12:50:35;5.63;;;4.50;;
13343;SDS011;6741;48.964;9.406;2023-08-24T12:53:04;4.70;;;4.30;;
13343;SDS011;6741;48.964;9.406;2023-08-24T12:55:31;5.30;;;4.13;;
13343;SDS011;6741;48.964;9.406;2023-08-24T12:57:58;9.70;;;4.60;;
13343;SDS011;6741;48.964;9.406;2023-08-24T13:00:26;6.03;;;4.00;;
13343;SDS011;6741;48.964;9.406;2023-08-24T13:02:53;5.82;;;4.65;;
13343;SDS011;6741;48.964;9.406;2023-08-24T13:05:20;6.53;;;4.40;;
13343;SDS011;6741;48.964;9.406;2023-08-24T13:07:47;8.98;;;4.45;;
13343;SDS011;6741;48.964;9.406;2023-08-24T13:10:15;4.38;;;3.97;;
13343;SDS011;6741;48.964;9.406;2023-08-24T13:12:43;4.63;;;4.20;;
13343;SDS011;6741;48.964;9.406;2023-08-24T13:15:10;6.32;;;4.38;;
13343;SDS011;6741;48.964;9.406;2023-08-24T13:17:38;6.10;;;4.65;;
13343;SDS011;6741;48.964;9.406;2023-08-24T13:20:06;5.43;;;4.22;;
13343;SDS011;6741;48.964;9.406;2023-08-24T13:22:33;5.45;;;3.95;;
13343;SDS011;6741;48.964;9.406;2023-08-24T13:25:00;6.53;;;4.80;;
13343;SDS011;6741;48.964;9.406;2023-08-24T13:27:27;4.85;;;4.10;;
13343;SDS011;6741;48.964;9.406;2023-08-24T13:29:55;5.75;;;4.47;;
13343;SDS011;6741;48.964;9.406;2023-08-24T13:32:25;7.07;;;4.88;;
13343;SDS011;6741;48.964;9.406;2023-08-24T13:34:54;5.47;;;4.68;;
13343;SDS011;6741;48.964;9.406;2023-08-24T13:37:21;4.85;;;4.43;;
13343;SDS011;6741;48.964;9.406;2023-08-24T13:39:48;4.78;;;4.38;;
13343;SDS011;6741;48.964;9.406;2023-08-24T13:42:15;4.45;;;4.05;;
13343;SDS011;6741;48.964;9.406;2023-08-24T13:44:42;6.90;;;4.88;;
13343;SDS011;6741;48.964;9.406;2023-08-24T13:47:09;4.82;;;4.32;;
13343;SDS011;6741;48.964;9.406;2023-08-24T13:49:36;5.38;;;4.43;;
13343;SDS011;6741;48.964;9.406;2023-08-24T13:52:04;6.47;;;4.45;;
13343;SDS011;6741;48.964;9.406;2023-08-24T13:54:31;4.25;;;3.90;;
13343;SDS011;6741;48.964;9.406;2023-08-24T13:56:58;4.72;;;4.22;;
13343;SDS011;6741;48.964;9.406;2023-08-24T13:59:25;6.22;;;3.97;;
13343;SDS011;6741;48.964;9.406;2023-08-24T14:01:52;4.45;;;4.05;;
13343;SDS011;6741;48.964;9.406;2023-08-24T14:04:19;4.38;;;4.07;;
13343;SDS011;6741;48.964;9.406;2023-08-24T14:06:45;4.85;;;3.80;;
13343;SDS011;6741;48.964;9.406;2023-08-24T14:09:14;4.68;;;3.53;;
13343;SDS011;6741;48.964;9.406;2023-08-24T14:11:41;5.75;;;3.88;;
13343;SDS011;6741;48.964;9.406;2023-08-24T14:14:08;6.35;;;3.78;;
13343;SDS011;6741;48.964;9.406;2023-08-24T14:16:35;6.80;;;3.78;;
13343;SDS011;6741;48.964;9.406;2023-08-24T14:19:02;7.53;;;4.03;;
13343;SDS011;6741;48.964;9.406;2023-08-24T14:21:29;7.35;;;4.65;;
13343;SDS011;6741;48.964;9.406;2023-08-24T14:23:56;8.05;;;4.20;;
13343;SDS011;6741;48.964;9.406;2023-08-24T14:26:24;6.45;;;4.35;;
13343;SDS011;6741;48.964;9.406;2023-08-24T14:28:51;6.40;;;4.47;;
13343;SDS011;6741;48.964;9.406;2023-08-24T14:31:20;6.97;;;4.20;;
13343;SDS011;6741;48.964;9.406;2023-08-24T14:33:47;4.55;;;4.25;;
13343;SDS011;6741;48.964;9.406;2023-08-24T14:36:15;5.32;;;4.82;;
13343;SDS011;6741;48.964;9.406;2023-08-24T14:38:42;7.70;;;4.65;;
13343;SDS011;6741;48.964;9.406;2023-08-24T14:41:09;5.22;;;4.85;;
13343;SDS011;6741;48.964;9.406;2023-08-24T14:43:38;5.10;;;4.60;;
13343;SDS011;6741;48.964;9.406;2023-08-24T14:46:06;5.75;;;4.93;;
13343;SDS011;6741;48.964;9.406;2023-08-24T14:48:33;7.13;;;5.28;;
13343;SDS011;6741;48.964;9.406;2023-08-24T14:51:00;6.03;;;5.20;;
13343;SDS011;6741;48.964;9.406;2023-08-24T14:53:27;5.28;;;4.85;;
13343;SDS011;6741;48.964;9.406;2023-08-24T14:55:55;6.35;;;5.00;;
13343;SDS011;6741;48.964;9.406;2023-08-24T14:58:23;5.78;;;5.10;;
13343;SDS011;6741;48.964;9.406;2023-08-24T15:00:53;5.65;;;5.05;;
13343;SDS011;6741;48.964;9.406;2023-08-24T15:03:24;5.50;;;5.00;;
13343;SDS011;6741;48.964;9.406;2023-08-24T15:05:57;5.68;;;5.03;;
13343;SDS011;6741;48.964;9.406;2023-08-24T15:08:25;5.82;;;5.05;;